Aérodrome :
LOGIN :

S'inscrire | Disclaimer

   EN    FR    IT 

 










Légende :    VFR   VFR Marginal   IFR   IFR Intensif   IFR Très Intensif
Visi : 
Plafond : 
>= 8 km
>= 3000ft
5 à 8 km
1000 à 3000 ft
1500m à 5 km
500 à 1000 ft
800 à 1500m
200 à 500 ft
< 800m
< 200 ft
Symboles :   Orages  Brouillard  Fortes neiges  Fortes précipitations  Vent > 20 kt
SIGMETs :   Divers  Orages  Givrage  Turbulence  Onde Orograph.  Cendres Volcan.







- Altitude de l'aérodrome : 138 ft
- Code IATA : BIO


LEBB - Bilbao

DERNIER METAR :
  • 251930Z 02006KT 350V050 9999 SCT010 BKN015 BKN023 13/13 Q1025 TEMPO 3000 DZ

METARs EXPIRÉS :
  • 251906Z 35008KT 8000 SCT010 SCT015 BKN023 13/13 Q1025 TEMPO 3000 DZ
  • 251839Z 35005KT 300V040 2000 -DZ FEW005 BKN010 BKN020 14/13 Q1024 TEMPO 6000 NSW
  • 251830Z 32005KT 280V030 4500 -DZ SCT007 BKN015 BKN020 14/13 Q1024 TEMPO 6000 NSW
  • 251824Z 31005KT 280V030 3500 -DZ SCT007 BKN015 BKN020 14/13 Q1024 TEMPO 5000
  • 251811Z 30006KT 2000 -DZ SCT007 BKN010 BKN015 14/13 Q1024 TEMPO 5000
  • 251800Z 32006KT 280V340 3000 -DZ SCT007 BKN010 BKN015 14/13 Q1024 TEMPO 5000
  • 251754Z 32007KT 3000 -DZ SCT007 BKN010 BKN015 14/13 Q1024 TEMPO 5000
  • 251730Z 32005KT 280V340 3000 -DZ SCT008 BKN014 BKN022 14/13 Q1024 TEMPO 5000
  • 251708Z 32006KT 3000 -DZ SCT008 BKN012 BKN023 14/13 Q1024 TEMPO 5000

TAF TAF LEBB
Valide du 25 à 18h jusqu'au 26 à 18h UTC


251700Z 2518/2618 30008KT 9999 SCT005 BKN020 TX16/2615Z TN10/2604Z
PROB40
TEMPO 2518/2606 3000 -RADZ BR BKN010
TEMPO 2612/2618 36010KT
Pas de NOTAMs connus pour ce terrain.



MET'MAP, la Météo Aéronautique d'un coup d'oeil ! - Copyright ORBIFLY Décembre 2007 - Disclaimer

ORBIFLY MET'MAP TEAM :

Programmation & Développement : Alexandra Zaïnal
Conception & Développement : Baudouin d'Aumeries
Co-Programmation & Développement : Marc-Olivier Méhu
Soutien technique & logistique : Manuel Goepfert

Contact : metmap@orbifly.com




SOURCES & CREDITS :

   NOAA